Time;durP1;ratioP1;P1;durP2;ratioP2;P2;SDS_P1;SDS_P2;PMS_P1;PMS_P2;Temp;Humidity;BMP_temperature;BMP_pressure;BME280_temperature;BME280_humidity;BME280_pressure;Samples;Min_cycle;Max_cycle;Signal;HPM_P1;HPM_P2
2022/12/19 00:02:09;;;;;;;33.40;19.85;;;0.60;99.90;;;;;;5022413;28;20540;-73
2022/12/19 00:04:35;;;;;;;33.30;21.17;;;0.30;99.90;;;;;;5041876;28;20044;-72
2022/12/19 00:07:01;;;;;;;31.83;20.35;;;0.30;99.90;;;;;;5039632;28;20049;-73
2022/12/19 00:09:27;;;;;;;34.95;22.25;;;2.10;99.90;;;;;;5040716;28;20041;-73
2022/12/19 00:11:53;;;;;;;36.70;21.02;;;0.30;99.90;;;;;;5041543;28;20412;-73
2022/12/19 00:14:19;;;;;;;34.63;20.77;;;0.30;99.90;;;;;;5070530;28;20115;-73
2022/12/19 00:16:45;;;;;;;35.45;20.08;;;0.30;99.90;;;;;;5040699;28;20144;-73
2022/12/19 00:19:11;;;;;;;34.25;19.13;;;0.30;99.90;;;;;;5039350;28;20074;-73
2022/12/19 00:21:37;;;;;;;34.97;21.25;;;0.30;99.90;;;;;;5069692;28;20037;-72
2022/12/19 00:24:05;;;;;;;32.55;19.92;;;0.30;99.90;;;;;;5053991;28;20055;-73
2022/12/19 00:26:34;;;;;;;34.55;21.02;;;0.40;99.90;;;;;;5019931;28;20096;-73
2022/12/19 00:29:06;;;;;;;35.22;21.15;;;0.40;99.90;;;;;;5019632;28;20098;-72
2022/12/19 00:31:33;;;;;;;37.08;21.30;;;0.40;99.90;;;;;;5039953;28;20033;-72
2022/12/19 00:34:00;;;;;;;35.63;19.73;;;0.40;99.90;;;;;;5042343;28;20400;-73
2022/12/19 00:36:28;;;;;;;35.13;20.75;;;0.40;99.90;;;;;;5025774;28;20048;-73
2022/12/19 00:38:56;;;;;;;32.35;20.77;;;0.40;99.90;;;;;;5042416;28;20465;-72
2022/12/19 00:41:24;;;;;;;36.00;20.83;;;0.40;99.90;;;;;;5043805;28;20182;-72
2022/12/19 00:44:04;;;;;;;32.75;20.70;;;0.40;99.90;;;;;;5043086;28;20489;-71
2022/12/19 00:46:31;;;;;;;33.40;20.75;;;0.50;99.90;;;;;;5043342;28;20041;-73
2022/12/19 00:48:57;;;;;;;36.42;21.23;;;0.50;99.90;;;;;;5040991;28;20037;-73
2022/12/19 00:51:25;;;;;;;35.72;21.67;;;0.40;99.90;;;;;;5050614;28;20036;-72
2022/12/19 00:53:53;;;;;;;34.85;21.13;;;0.60;99.90;;;;;;5042421;28;20350;-72
2022/12/19 00:56:22;;;;;;;33.78;20.30;;;0.50;99.90;;;;;;5044503;28;20048;-72
2022/12/19 00:58:48;;;;;;;36.72;22.02;;;0.50;99.90;;;;;;5042844;28;20162;-72
2022/12/19 01:01:16;;;;;;;33.05;20.20;;;1.30;99.90;;;;;;5041650;28;20076;-72
2022/12/19 01:03:42;;;;;;;36.53;21.75;;;0.60;99.90;;;;;;5027885;28;20684;-72
2022/12/19 01:06:08;;;;;;;36.90;20.80;;;0.60;99.90;;;;;;5029295;28;20037;-72
2022/12/19 01:08:34;;;;;;;35.42;20.73;;;0.60;99.90;;;;;;5044956;28;20452;-71
2022/12/19 01:11:00;;;;;;;36.63;20.92;;;0.60;99.90;;;;;;5073985;28;20088;-72
2022/12/19 01:13:28;;;;;;;36.78;21.48;;;0.60;99.90;;;;;;5041842;28;20068;-72
2022/12/19 01:15:54;;;;;;;33.38;21.08;;;-0.30;99.90;;;;;;5046442;28;20477;-71
2022/12/19 01:18:21;;;;;;;34.95;21.15;;;0.70;99.90;;;;;;5073118;28;20045;-71
2022/12/19 01:20:46;;;;;;;34.30;20.48;;;0.70;99.90;;;;;;5049239;28;20048;-72
2022/12/19 01:23:14;;;;;;;38.22;21.83;;;0.70;99.90;;;;;;5046264;28;20053;-72
2022/12/19 01:25:40;;;;;;;37.50;19.55;;;0.70;99.90;;;;;;5037299;28;20045;-71
2022/12/19 01:28:10;;;;;;;34.00;21.63;;;2.00;99.90;;;;;;5077195;28;20497;-72
2022/12/19 01:30:39;;;;;;;36.67;21.98;;;0.80;99.90;;;;;;5039494;28;20120;-72
2022/12/19 01:33:04;;;;;;;34.78;20.13;;;0.80;99.90;;;;;;5042301;28;20033;-72
2022/12/19 01:35:30;;;;;;;34.92;20.20;;;2.50;99.90;;;;;;5010401;28;20045;-73
2022/12/19 01:37:56;;;;;;;36.38;21.73;;;0.90;99.90;;;;;;5031592;28;20029;-72
2022/12/19 01:40:22;;;;;;;32.67;20.35;;;0.90;99.90;;;;;;5034725;28;20128;-71
2022/12/19 01:42:49;;;;;;;39.13;21.83;;;0.90;99.90;;;;;;5016695;28;20401;-72
2022/12/19 01:45:14;;;;;;;38.90;21.67;;;0.90;99.90;;;;;;5033115;28;20067;-72
2022/12/19 01:48:11;;;;;;;36.10;20.55;;;0.90;99.90;;;;;;5031357;28;20566;-72
2022/12/19 01:50:41;;;;;;;35.40;20.95;;;1.20;99.90;;;;;;5049393;28;20053;-72
2022/12/19 01:53:10;;;;;;;32.80;20.00;;;0.20;99.90;;;;;;5033859;28;20485;-72
2022/12/19 01:55:38;;;;;;;40.63;22.65;;;0.90;99.90;;;;;;5033300;28;20041;-72
2022/12/19 01:58:04;;;;;;;35.92;20.20;;;1.00;99.90;;;;;;5033809;28;20067;-72
2022/12/19 02:00:30;;;;;;;35.40;20.90;;;1.00;99.90;;;;;;5022395;28;20036;-72
2022/12/19 02:03:06;;;;;;;37.45;20.80;;;1.50;99.90;;;;;;5037153;28;20036;-72
2022/12/19 02:05:32;;;;;;;41.70;22.08;;;1.10;99.90;;;;;;5050206;28;20041;-72
2022/12/19 02:07:59;;;;;;;35.22;21.40;;;1.10;99.90;;;;;;5040493;28;20094;-72
2022/12/19 02:10:25;;;;;;;41.17;23.05;;;1.10;99.90;;;;;;5044690;28;20025;-72
2022/12/19 02:12:50;;;;;;;41.58;22.73;;;1.30;99.90;;;;;;5045318;28;20053;-72
2022/12/19 02:15:17;;;;;;;42.83;23.50;;;3.10;99.90;;;;;;5051847;28;20484;-72
2022/12/19 02:17:51;;;;;;;36.75;21.15;;;1.00;99.90;;;;;;5040709;28;20067;-72
2022/12/19 02:20:29;;;;;;;37.55;22.05;;;1.00;99.90;;;;;;5043282;28;20044;-72
2022/12/19 02:23:16;;;;;;;32.20;19.35;;;1.00;99.90;;;;;;5068346;28;20093;-72
2022/12/19 02:26:18;;;;;;;41.25;23.13;;;1.10;99.90;;;;;;5040716;28;20048;-72
2022/12/19 02:29:21;;;;;;;41.22;19.95;;;1.10;99.90;;;;;;5046508;28;20041;-72
2022/12/19 02:31:57;;;;;;;40.58;22.33;;;1.10;99.90;;;;;;5054375;28;20044;-73
2022/12/19 02:34:41;;;;;;;37.88;21.95;;;1.10;99.90;;;;;;5044208;28;20049;-72
2022/12/19 02:37:32;;;;;;;40.83;22.13;;;1.10;99.90;;;;;;5038337;28;20036;-72
2022/12/19 02:40:22;;;;;;;40.13;21.40;;;1.00;99.90;;;;;;5032168;28;20060;-72
2022/12/19 02:42:52;;;;;;;37.80;22.33;;;1.10;99.90;;;;;;5043054;28;20433;-72
2022/12/19 02:45:21;;;;;;;41.13;22.52;;;1.10;99.90;;;;;;5047519;28;20036;-72
2022/12/19 02:47:47;;;;;;;39.45;22.73;;;1.10;99.90;;;;;;5042743;28;20041;-72
2022/12/19 02:50:13;;;;;;;43.65;23.52;;;1.10;99.90;;;;;;5045263;28;20107;-72
2022/12/19 02:52:39;;;;;;;39.08;25.17;;;1.10;99.90;;;;;;5029168;28;20504;-72
2022/12/19 02:55:12;;;;;;;44.20;23.35;;;1.10;99.90;;;;;;5041211;28;20500;-72
2022/12/19 02:57:59;;;;;;;42.05;23.15;;;1.20;99.90;;;;;;5020180;28;20041;-72
2022/12/19 03:00:26;;;;;;;39.42;22.48;;;1.20;99.90;;;;;;5046359;28;20052;-72
2022/12/19 03:03:03;;;;;;;38.50;21.95;;;1.30;99.90;;;;;;5041686;28;20083;-72
2022/12/19 03:05:38;;;;;;;41.75;23.67;;;1.30;99.90;;;;;;5042005;28;20104;-72
2022/12/19 03:08:36;;;;;;;44.55;24.58;;;1.30;99.90;;;;;;5043381;28;20049;-72
2022/12/19 03:11:08;;;;;;;37.03;20.45;;;1.30;99.90;;;;;;4974298;28;20083;-73
2022/12/19 03:13:40;;;;;;;41.60;23.83;;;1.30;99.90;;;;;;5071894;28;20048;-73
2022/12/19 03:16:08;;;;;;;40.05;23.38;;;1.30;99.90;;;;;;5043115;28;20057;-72
2022/12/19 03:18:35;;;;;;;41.78;25.05;;;1.30;99.90;;;;;;5040851;28;20045;-72
2022/12/19 03:21:13;;;;;;;42.15;23.60;;;2.60;99.90;;;;;;5043372;28;20116;-73
2022/12/19 03:23:40;;;;;;;37.95;22.92;;;1.40;99.90;;;;;;5046850;28;20489;-73
2022/12/19 03:26:18;;;;;;;36.40;22.17;;;2.80;99.90;;;;;;5029314;28;20047;-72
2022/12/19 03:28:55;;;;;;;38.40;23.35;;;3.40;99.90;;;;;;5027323;28;20103;-73
2022/12/19 03:31:25;;;;;;;39.53;23.88;;;1.60;99.90;;;;;;5073105;28;20496;-73
2022/12/19 03:34:01;;;;;;;43.17;24.23;;;1.30;99.90;;;;;;5043479;28;20080;-72
2022/12/19 03:36:33;;;;;;;44.05;24.98;;;1.50;99.90;;;;;;5047706;28;20124;-72
2022/12/19 03:39:02;;;;;;;37.30;23.40;;;1.50;99.90;;;;;;5039863;28;20067;-73
2022/12/19 03:44:15;;;;;;;42.65;24.73;;;1.50;99.90;;;;;;5040136;28;20049;-73
2022/12/19 03:46:44;;;;;;;42.35;25.05;;;3.30;99.90;;;;;;5029977;28;20389;-73
2022/12/19 03:49:11;;;;;;;45.42;24.83;;;0.30;99.90;;;;;;5027402;28;20086;-73
2022/12/19 03:51:46;;;;;;;46.22;25.77;;;1.60;99.90;;;;;;5029171;28;20040;-73
2022/12/19 03:54:25;;;;;;;46.00;26.15;;;1.60;99.90;;;;;;5043906;28;20040;-73
2022/12/19 03:57:19;;;;;;;45.70;26.42;;;1.60;99.90;;;;;;5036212;28;20404;-73
2022/12/19 04:00:03;;;;;;;47.25;26.17;;;1.60;99.90;;;;;;5047721;28;20088;-73
2022/12/19 04:02:32;;;;;;;50.10;27.42;;;1.60;99.90;;;;;;5032444;28;20072;-73
2022/12/19 04:05:03;;;;;;;45.95;26.60;;;1.60;99.90;;;;;;5071801;28;20559;-74
2022/12/19 04:07:29;;;;;;;44.08;25.10;;;1.20;99.90;;;;;;5045681;28;20037;-74
2022/12/19 04:09:57;;;;;;;50.05;27.75;;;1.70;99.90;;;;;;5042946;28;20053;-73
2022/12/19 04:12:32;;;;;;;45.63;26.17;;;3.20;99.90;;;;;;5036006;28;20041;-73
2022/12/19 04:14:58;;;;;;;45.45;27.20;;;2.70;99.90;;;;;;5021116;28;20068;-73
2022/12/19 04:17:29;;;;;;;45.78;28.13;;;3.70;99.90;;;;;;5037438;28;20049;-73
2022/12/19 04:19:58;;;;;;;51.67;27.52;;;1.80;99.90;;;;;;5037033;28;20488;-73
2022/12/19 04:22:32;;;;;;;55.38;27.67;;;1.80;99.90;;;;;;5016048;28;20600;-73
2022/12/19 04:25:04;;;;;;;50.45;29.33;;;3.10;99.90;;;;;;5007650;28;20691;-74
2022/12/19 04:27:32;;;;;;;48.85;28.90;;;1.80;99.90;;;;;;5016325;28;20044;-73
2022/12/19 04:30:01;;;;;;;50.92;29.50;;;1.90;99.90;;;;;;5034836;28;20037;-73
2022/12/19 04:32:31;;;;;;;47.60;28.15;;;2.70;99.90;;;;;;5033697;28;20140;-73
2022/12/19 04:35:00;;;;;;;44.47;27.23;;;1.90;99.90;;;;;;5031348;28;20083;-74
2022/12/19 04:37:27;;;;;;;50.42;29.40;;;2.60;99.90;;;;;;5047589;28;20041;-73
2022/12/19 04:39:53;;;;;;;49.00;27.00;;;1.90;99.90;;;;;;5034572;28;20041;-73
2022/12/19 04:42:19;;;;;;;50.08;29.67;;;3.80;99.90;;;;;;5032099;28;20049;-73
2022/12/19 04:44:45;;;;;;;49.38;27.90;;;1.90;99.90;;;;;;5032848;28;20073;-74
2022/12/19 04:47:10;;;;;;;47.92;28.30;;;1.90;99.90;;;;;;5043595;28;20496;-73
2022/12/19 04:49:36;;;;;;;54.63;29.70;;;2.20;99.90;;;;;;5043135;28;20489;-73
2022/12/19 04:52:02;;;;;;;51.28;29.77;;;2.00;99.90;;;;;;5043056;28;20673;-73
2022/12/19 04:54:27;;;;;;;54.97;30.17;;;2.10;99.90;;;;;;5079294;28;20448;-73
2022/12/19 04:56:53;;;;;;;49.60;29.92;;;2.00;99.90;;;;;;5039453;28;20394;-73
2022/12/19 04:59:19;;;;;;;52.47;29.38;;;2.10;99.90;;;;;;5041294;28;20033;-73
2022/12/19 05:01:44;;;;;;;48.47;28.35;;;2.00;99.90;;;;;;5024674;28;20037;-73
2022/12/19 05:04:10;;;;;;;54.97;29.77;;;2.00;99.90;;;;;;5037084;28;20127;-73
2022/12/19 05:06:36;;;;;;;48.30;27.60;;;2.10;99.90;;;;;;5036618;28;20071;-73
2022/12/19 05:09:02;;;;;;;48.83;29.38;;;2.00;99.90;;;;;;5043728;28;20049;-73
2022/12/19 05:11:27;;;;;;;56.53;29.48;;;2.20;99.90;;;;;;5042060;28;20419;-73
2022/12/19 05:13:53;;;;;;;52.80;30.05;;;2.20;99.90;;;;;;5038382;28;20129;-74
2022/12/19 05:16:19;;;;;;;47.85;27.77;;;2.20;99.90;;;;;;5040263;28;20057;-73
2022/12/19 05:18:45;;;;;;;46.95;26.67;;;3.50;99.90;;;;;;5023748;28;20044;-73
2022/12/19 05:21:11;;;;;;;46.63;27.50;;;2.20;99.90;;;;;;5016864;28;20455;-73
2022/12/19 05:23:37;;;;;;;55.83;30.05;;;2.20;99.90;;;;;;5042701;28;20052;-73
2022/12/19 05:26:04;;;;;;;45.25;25.67;;;2.30;99.90;;;;;;5023664;28;20139;-73
2022/12/19 05:28:31;;;;;;;51.58;28.40;;;0.90;99.90;;;;;;5030752;28;20041;-73
2022/12/19 05:31:08;;;;;;;52.72;28.60;;;2.30;99.90;;;;;;5024056;28;20064;-74
2022/12/19 05:33:35;;;;;;;42.95;26.83;;;2.30;99.90;;;;;;5040284;28;20044;-73
2022/12/19 05:36:01;;;;;;;43.28;26.60;;;2.30;99.90;;;;;;5036974;28;21237;-74
2022/12/19 05:38:27;;;;;;;35.38;21.58;;;3.10;99.90;;;;;;5041172;28;20037;-74
2022/12/19 05:40:53;;;;;;;42.28;25.02;;;2.40;99.90;;;;;;5023612;28;20041;-74
2022/12/19 05:43:19;;;;;;;46.28;24.40;;;2.50;99.90;;;;;;5048668;28;20119;-73
2022/12/19 05:45:44;;;;;;;41.78;24.30;;;2.50;99.90;;;;;;5035531;28;20044;-73
2022/12/19 05:48:10;;;;;;;43.10;24.45;;;1.50;99.90;;;;;;5056324;28;20040;-74
2022/12/19 05:50:36;;;;;;;45.35;25.05;;;2.50;99.90;;;;;;5051095;28;20450;-74
2022/12/19 05:53:01;;;;;;;37.80;22.30;;;2.60;99.90;;;;;;5050628;28;20159;-74
2022/12/19 05:55:27;;;;;;;36.42;21.65;;;2.60;99.90;;;;;;5045226;28;20038;-74
2022/12/19 05:57:53;;;;;;;38.83;22.58;;;2.50;99.90;;;;;;5043889;28;20492;-74
2022/12/19 06:00:20;;;;;;;35.67;20.02;;;2.60;99.90;;;;;;5049055;28;20033;-74
2022/12/19 06:02:47;;;;;;;35.35;21.88;;;4.60;99.90;;;;;;5080666;28;20048;-74
2022/12/19 06:05:13;;;;;;;35.30;21.55;;;2.80;99.90;;;;;;5049353;28;20041;-74
2022/12/19 06:07:38;;;;;;;33.03;21.52;;;2.70;99.90;;;;;;5032770;28;20378;-75
2022/12/19 06:10:05;;;;;;;31.90;19.35;;;2.80;99.90;;;;;;5029474;28;20060;-74
2022/12/19 06:12:31;;;;;;;31.20;19.70;;;3.80;99.90;;;;;;5026838;28;20136;-73
2022/12/19 06:14:57;;;;;;;36.63;20.88;;;2.90;99.90;;;;;;5041288;28;20132;-73
2022/12/19 06:17:23;;;;;;;33.92;19.95;;;2.90;99.90;;;;;;5035817;28;20052;-74
2022/12/19 06:19:49;;;;;;;34.53;20.23;;;3.10;99.90;;;;;;5054283;28;20048;-74
2022/12/19 06:22:14;;;;;;;34.42;19.42;;;1.40;99.90;;;;;;5025965;28;20051;-74
2022/12/19 06:24:40;;;;;;;28.00;18.48;;;3.00;99.90;;;;;;5049787;28;20500;-74
2022/12/19 06:27:06;;;;;;;31.95;19.70;;;3.00;99.90;;;;;;5033379;28;20068;-74
2022/12/19 06:29:32;;;;;;;30.38;18.10;;;3.10;99.90;;;;;;5049712;28;20045;-74
2022/12/19 06:31:58;;;;;;;32.03;18.67;;;3.10;99.90;;;;;;5033426;28;20041;-74
2022/12/19 06:34:28;;;;;;;28.92;16.65;;;2.10;99.90;;;;;;5032023;28;20098;-74
2022/12/19 06:36:53;;;;;;;26.23;15.15;;;3.20;99.90;;;;;;5045818;28;20377;-73
2022/12/19 06:39:19;;;;;;;29.98;18.25;;;4.70;99.90;;;;;;5049195;28;20044;-73
2022/12/19 06:44:30;;;;;;;22.80;14.82;;;3.30;99.90;;;;;;5053884;28;20070;-72
2022/12/19 06:46:56;;;;;;;21.65;14.93;;;3.30;99.90;;;;;;5038027;28;20084;-74
2022/12/19 06:49:22;;;;;;;22.83;15.00;;;3.40;99.90;;;;;;5049141;28;20075;-74
2022/12/19 06:51:47;;;;;;;25.85;15.85;;;3.60;99.90;;;;;;5045976;28;20517;-74
2022/12/19 06:54:15;;;;;;;25.65;15.65;;;5.20;99.90;;;;;;5042333;28;20045;-75
2022/12/19 06:56:42;;;;;;;25.02;13.57;;;3.40;99.90;;;;;;5048042;28;20611;-75
2022/12/19 06:59:11;;;;;;;23.83;14.95;;;5.50;99.90;;;;;;5049986;28;20033;-75
2022/12/19 07:01:52;;;;;;;21.98;14.65;;;3.50;99.90;;;;;;5049887;28;20086;-75
2022/12/19 07:04:39;;;;;;;21.13;13.48;;;3.50;99.90;;;;;;5027301;28;20068;-75
2022/12/19 07:07:06;;;;;;;20.83;13.18;;;3.60;99.90;;;;;;5048939;28;20063;-75
2022/12/19 07:09:33;;;;;;;22.00;13.57;;;3.60;99.90;;;;;;5048416;28;20052;-75
2022/12/19 07:11:59;;;;;;;23.42;14.32;;;3.60;99.90;;;;;;5049993;28;20051;-75
2022/12/19 07:14:25;;;;;;;21.40;13.32;;;4.80;99.90;;;;;;5048547;28;20106;-75
2022/12/19 07:16:52;;;;;;;24.80;14.73;;;5.40;99.90;;;;;;5047839;28;20584;-75
2022/12/19 07:19:20;;;;;;;23.33;14.05;;;3.60;99.90;;;;;;5042211;28;20049;-76
2022/12/19 07:21:46;;;;;;;21.15;13.45;;;5.20;99.90;;;;;;5049871;28;20178;-75
2022/12/19 07:24:13;;;;;;;24.23;15.43;;;3.70;99.90;;;;;;5039603;28;20102;-76
2022/12/19 07:26:40;;;;;;;20.52;13.57;;;3.70;99.90;;;;;;5032091;28;20041;-75
2022/12/19 07:29:07;;;;;;;23.48;15.52;;;5.40;99.90;;;;;;5064458;28;20041;-75
2022/12/19 07:31:33;;;;;;;20.63;14.40;;;3.70;99.90;;;;;;5054874;28;20124;-75
2022/12/19 07:33:59;;;;;;;18.52;13.63;;;4.20;99.90;;;;;;5042199;28;20465;-76
2022/12/19 07:36:25;;;;;;;21.50;14.15;;;5.30;99.90;;;;;;5048351;28;20102;-76
2022/12/19 07:38:50;;;;;;;26.58;17.25;;;3.80;99.90;;;;;;5030774;28;20476;-75
2022/12/19 07:41:16;;;;;;;21.02;13.98;;;3.80;99.90;;;;;;5031539;28;20115;-75
2022/12/19 07:43:42;;;;;;;20.58;13.45;;;3.80;99.90;;;;;;5038540;28;20123;-75
2022/12/19 07:46:11;;;;;;;24.83;15.27;;;3.80;99.90;;;;;;5042201;28;20045;-75
2022/12/19 07:48:38;;;;;;;19.45;13.30;;;2.30;99.90;;;;;;5031277;28;20048;-74
2022/12/19 07:51:04;;;;;;;20.15;13.40;;;5.80;99.90;;;;;;5063962;28;20033;-76
2022/12/19 07:53:30;;;;;;;18.98;13.73;;;3.90;99.90;;;;;;5046536;28;20669;-76
2022/12/19 07:55:56;;;;;;;22.02;12.93;;;3.90;99.90;;;;;;5081486;28;20408;-76
2022/12/19 07:58:22;;;;;;;18.23;12.73;;;4.30;99.90;;;;;;5029452;28;20051;-76
2022/12/19 08:01:02;;;;;;;20.77;12.90;;;4.00;99.90;;;;;;5041089;28;20409;-76
2022/12/19 08:03:27;;;;;;;20.80;12.10;;;5.60;99.90;;;;;;5021301;28;20044;-75
2022/12/19 08:06:03;;;;;;;18.85;13.13;;;4.10;99.90;;;;;;5048346;28;20041;-76
2022/12/19 08:08:29;;;;;;;18.50;13.13;;;4.10;99.90;;;;;;5047863;28;20044;-75
2022/12/19 08:11:07;;;;;;;19.00;12.65;;;4.20;99.90;;;;;;5047384;28;20123;-75
2022/12/19 08:13:33;;;;;;;20.88;13.48;;;4.20;99.90;;;;;;5029275;28;20536;-75
2022/12/19 08:16:02;;;;;;;18.30;12.63;;;4.20;99.90;;;;;;5030068;28;20497;-75
2022/12/19 08:18:28;;;;;;;21.08;13.15;;;4.20;99.90;;;;;;5030795;28;20040;-75
2022/12/19 08:20:53;;;;;;;20.35;12.93;;;4.30;99.90;;;;;;5029516;28;20068;-76
2022/12/19 08:23:19;;;;;;;19.40;13.90;;;6.10;99.90;;;;;;5027622;28;20044;-76
2022/12/19 08:25:45;;;;;;;16.48;11.18;;;4.30;99.90;;;;;;5047558;28;20037;-76
2022/12/19 08:28:21;;;;;;;17.83;12.27;;;4.40;99.90;;;;;;5044065;28;20041;-75
2022/12/19 08:30:47;;;;;;;17.85;11.35;;;4.40;99.90;;;;;;5030986;28;20040;-75
2022/12/19 08:33:12;;;;;;;13.43;10.37;;;4.50;99.90;;;;;;4342978;28;10000808;-75
2022/12/19 08:35:38;;;;;;;14.93;11.82;;;4.50;99.90;;;;;;5045071;28;20798;-76
2022/12/19 08:38:05;;;;;;;16.85;11.30;;;4.50;99.90;;;;;;5044857;28;20044;-76
2022/12/19 08:40:30;;;;;;;16.13;11.55;;;4.90;99.90;;;;;;5045050;28;20039;-75
2022/12/19 08:42:56;;;;;;;16.60;12.27;;;3.60;99.90;;;;;;5045858;28;20044;-76
2022/12/19 08:45:22;;;;;;;18.92;11.98;;;4.60;99.90;;;;;;5044218;28;20127;-75
2022/12/19 08:47:48;;;;;;;15.32;11.43;;;5.30;99.90;;;;;;5048129;28;20088;-75
2022/12/19 08:50:13;;;;;;;18.98;13.43;;;6.10;99.90;;;;;;5029781;28;20064;-76
2022/12/19 08:52:39;;;;;;;19.20;12.57;;;4.70;99.90;;;;;;5028768;28;20076;-76
2022/12/19 08:55:06;;;;;;;20.92;13.27;;;6.40;99.90;;;;;;5029106;28;20499;-76
2022/12/19 08:57:32;;;;;;;18.13;12.85;;;4.80;99.90;;;;;;5049311;28;20047;-76
2022/12/19 08:59:58;;;;;;;17.15;13.02;;;4.80;99.90;;;;;;5076976;28;20045;-76
2022/12/19 09:02:23;;;;;;;20.67;12.48;;;4.90;99.90;;;;;;5047987;28;20126;-77
2022/12/19 09:04:49;;;;;;;18.15;13.52;;;5.70;99.90;;;;;;5057220;28;20045;-76
2022/12/19 09:07:15;;;;;;;19.67;12.25;;;5.00;99.90;;;;;;5051664;28;20094;-74
2022/12/19 09:09:41;;;;;;;16.48;12.43;;;5.00;99.90;;;;;;5046362;28;20045;-75
2022/12/19 09:12:07;;;;;;;18.05;12.93;;;5.10;99.90;;;;;;5025218;28;20048;-76
2022/12/19 09:14:33;;;;;;;15.82;11.70;;;6.90;99.90;;;;;;5028348;28;20048;-75
2022/12/19 09:16:59;;;;;;;14.25;11.50;;;6.80;99.90;;;;;;5035535;28;20079;-75
2022/12/19 09:19:25;;;;;;;17.63;12.75;;;5.20;99.90;;;;;;5026624;28;20412;-76
2022/12/19 09:21:51;;;;;;;15.15;11.88;;;6.40;99.90;;;;;;5050579;28;20045;-75
2022/12/19 09:24:16;;;;;;;18.48;14.93;;;5.30;99.90;;;;;;5082811;28;20083;-76
2022/12/19 09:26:43;;;;;;;17.88;13.57;;;5.30;99.90;;;;;;5054432;28;20041;-75
2022/12/19 09:29:09;;;;;;;19.00;12.98;;;5.40;99.90;;;;;;5046213;28;20711;-75
2022/12/19 09:31:35;;;;;;;16.48;13.35;;;4.50;99.90;;;;;;5051716;28;20045;-74
2022/12/19 09:34:01;;;;;;;17.50;14.02;;;5.40;99.90;;;;;;5054668;28;20766;-74
2022/12/19 09:36:26;;;;;;;18.85;14.27;;;5.40;99.90;;;;;;5052683;28;20048;-75
2022/12/19 09:38:54;;;;;;;21.27;14.68;;;5.50;99.90;;;;;;5049201;28;20044;-75
2022/12/19 09:41:22;;;;;;;31.73;23.20;;;5.50;99.90;;;;;;5050558;28;20535;-75
2022/12/19 09:44:06;;;;;;;21.17;14.60;;;5.50;99.90;;;;;;5057491;28;20500;-75
2022/12/19 09:46:49;;;;;;;17.70;13.90;;;5.50;99.90;;;;;;5083908;28;20041;-75
2022/12/19 09:49:43;;;;;;;20.13;14.60;;;5.50;99.90;;;;;;5030332;28;20037;-75
2022/12/19 09:52:42;;;;;;;20.33;14.50;;;5.50;99.90;;;;;;5054290;28;20045;-75
2022/12/19 09:55:36;;;;;;;18.50;13.50;;;5.60;99.90;;;;;;5051777;28;20091;-75
2022/12/19 09:58:27;;;;;;;20.42;14.90;;;5.70;99.90;;;;;;5046713;28;20061;-75
2022/12/19 10:01:00;;;;;;;20.42;15.18;;;5.70;99.90;;;;;;5051329;28;20048;-75
2022/12/19 10:03:40;;;;;;;20.60;15.43;;;5.60;99.90;;;;;;5039087;28;20091;-75
2022/12/19 10:06:23;;;;;;;18.48;14.20;;;6.90;99.90;;;;;;5052730;28;20036;-75
2022/12/19 10:08:51;;;;;;;24.30;15.07;;;5.80;99.90;;;;;;5052783;28;20037;-75
2022/12/19 10:11:16;;;;;;;19.20;14.23;;;5.90;99.90;;;;;;5051957;28;20707;-76
2022/12/19 10:13:57;;;;;;;18.20;13.90;;;5.90;99.90;;;;;;5049739;28;20048;-76
2022/12/19 10:16:38;;;;;;;21.17;14.30;;;5.90;99.90;;;;;;5056659;28;20056;-75
2022/12/19 10:19:11;;;;;;;18.23;13.95;;;6.00;99.90;;;;;;5050872;28;20558;-75
2022/12/19 10:21:51;;;;;;;19.85;13.57;;;6.00;99.90;;;;;;5035214;28;20065;-75
2022/12/19 10:24:26;;;;;;;19.23;13.65;;;6.10;99.90;;;;;;5049805;28;20049;-75
2022/12/19 10:26:54;;;;;;;18.85;14.05;;;6.10;99.90;;;;;;5055744;28;20098;-76
2022/12/19 10:29:35;;;;;;;20.33;14.15;;;7.90;99.90;;;;;;5048863;28;20045;-76
2022/12/19 10:32:13;;;;;;;18.90;13.93;;;6.20;99.90;;;;;;5065118;28;20115;-75
2022/12/19 10:34:42;;;;;;;20.10;13.63;;;6.20;99.90;;;;;;5030563;28;20484;-76
2022/12/19 10:37:38;;;;;;;18.05;13.70;;;7.80;99.90;;;;;;5049617;28;20489;-76
2022/12/19 10:40:22;;;;;;;15.57;12.52;;;6.30;99.90;;;;;;5035381;28;20424;-76
2022/12/19 10:42:50;;;;;;;15.88;12.10;;;6.40;99.90;;;;;;5050453;28;20045;-75
2022/12/19 10:45:22;;;;;;;15.15;12.48;;;6.50;99.90;;;;;;5040846;28;20072;-75
2022/12/19 10:47:54;;;;;;;15.73;12.60;;;6.50;99.90;;;;;;5027541;28;20044;-75
2022/12/19 10:50:23;;;;;;;16.20;13.15;;;8.10;99.90;;;;;;5028495;28;20037;-76
2022/12/19 10:52:51;;;;;;;17.25;12.07;;;8.10;99.90;;;;;;5037981;28;20051;-76
2022/12/19 10:55:49;;;;;;;18.45;12.73;;;6.60;99.90;;;;;;5045427;28;20044;-75
2022/12/19 10:58:34;;;;;;;18.23;11.35;;;6.70;99.90;;;;;;5052413;28;20048;-76
2022/12/19 11:01:24;;;;;;;13.23;10.45;;;6.70;99.90;;;;;;5032159;28;20538;-76
2022/12/19 11:04:18;;;;;;;13.88;9.68;;;6.80;99.90;;;;;;5050876;28;20076;-76
2022/12/19 11:07:04;;;;;;;13.63;10.90;;;6.80;99.90;;;;;;5034073;28;20051;-76
2022/12/19 11:09:38;;;;;;;13.48;10.20;;;7.40;99.90;;;;;;5058913;28;20037;-76
2022/12/19 11:12:07;;;;;;;14.70;11.25;;;6.90;99.90;;;;;;5054966;28;20091;-76
2022/12/19 11:14:35;;;;;;;14.02;11.20;;;7.50;99.90;;;;;;5049114;28;20033;-77
2022/12/19 11:17:02;;;;;;;15.68;12.40;;;7.00;99.90;;;;;;5048887;28;20210;-74
2022/12/19 11:19:34;;;;;;;13.43;10.23;;;7.20;99.90;;;;;;5071630;28;20477;-76
2022/12/19 11:22:05;;;;;;;14.77;10.60;;;7.00;99.90;;;;;;5040703;28;20048;-78
2022/12/19 11:24:38;;;;;;;15.85;11.40;;;8.60;99.90;;;;;;5048142;28;20120;-77
2022/12/19 11:27:41;;;;;;;12.50;9.75;;;7.00;99.90;;;;;;5036753;28;20064;-76
2022/12/19 11:30:29;;;;;;;11.48;9.20;;;7.10;99.90;;;;;;5042770;28;20045;-78
2022/12/19 11:33:16;;;;;;;14.05;9.68;;;7.20;99.90;;;;;;5064101;28;20041;-76
2022/12/19 11:35:49;;;;;;;14.43;10.10;;;7.20;99.90;;;;;;5036516;28;20056;-75
2022/12/19 11:38:20;;;;;;;14.43;10.57;;;7.20;99.90;;;;;;4677364;28;10000392;-77
2022/12/19 11:40:57;;;;;;;11.80;8.73;;;7.20;99.90;;;;;;5039661;28;20133;-76
2022/12/19 11:43:53;;;;;;;13.95;9.55;;;7.20;99.90;;;;;;5042450;28;20047;-75
2022/12/19 11:46:41;;;;;;;12.77;10.60;;;7.30;99.90;;;;;;5041163;28;20045;-75
2022/12/19 11:49:50;;;;;;;13.02;10.60;;;7.30;99.90;;;;;;5041842;28;20045;-75
2022/12/19 11:52:30;;;;;;;14.55;9.57;;;7.20;99.90;;;;;;5044876;28;20060;-77
2022/12/19 11:55:02;;;;;;;14.85;10.13;;;7.30;99.90;;;;;;5050546;28;20076;-77
2022/12/19 11:57:28;;;;;;;12.30;9.25;;;7.30;99.90;;;;;;5028249;28;20040;-77
2022/12/19 11:59:54;;;;;;;10.60;9.38;;;5.90;99.90;;;;;;5049498;28;20357;-77
2022/12/19 12:02:38;;;;;;;11.95;9.70;;;7.40;99.90;;;;;;5053543;28;20029;-77
2022/12/19 12:05:21;;;;;;;11.13;9.20;;;7.40;99.90;;;;;;5029514;28;20131;-76
2022/12/19 12:08:10;;;;;;;12.57;8.93;;;7.30;99.90;;;;;;5037289;28;20051;-77
2022/12/19 12:10:44;;;;;;;13.18;9.00;;;6.80;99.90;;;;;;5043397;28;20033;-77
2022/12/19 12:13:30;;;;;;;10.43;9.23;;;7.50;99.90;;;;;;5048043;28;20114;-76
2022/12/19 12:16:16;;;;;;;12.40;9.02;;;7.50;99.90;;;;;;5025107;28;20048;-76
2022/12/19 12:19:13;;;;;;;9.80;7.43;;;7.50;99.90;;;;;;5049329;28;20044;-77
2022/12/19 12:21:58;;;;;;;9.80;7.40;;;7.60;99.90;;;;;;5050547;28;20040;-77
2022/12/19 12:25:09;;;;;;;10.57;8.85;;;7.60;99.90;;;;;;5048476;28;20071;-77
2022/12/19 12:27:58;;;;;;;10.57;8.38;;;7.60;99.90;;;;;;5016117;28;20523;-77
2022/12/19 12:30:24;;;;;;;10.93;9.15;;;7.70;99.90;;;;;;5029401;28;20787;-77
2022/12/19 12:33:10;;;;;;;11.90;8.80;;;7.60;99.90;;;;;;5044588;28;20123;-76
2022/12/19 12:35:38;;;;;;;12.55;8.43;;;7.10;99.90;;;;;;5045615;28;20713;-76
2022/12/19 12:38:38;;;;;;;10.88;8.90;;;9.20;99.90;;;;;;5049645;28;20158;-76
2022/12/19 12:42:02;;;;;;;10.20;8.07;;;7.60;99.90;;;;;;5027664;28;20040;-76
2022/12/19 12:44:12;;;;;;;11.02;8.38;;;7.60;99.90;;;;;;5053767;28;20107;-76
2022/12/19 12:46:48;;;;;;;9.68;8.00;;;8.70;99.90;;;;;;5025726;28;20075;-75
2022/12/19 12:49:31;;;;;;;8.90;8.02;;;8.60;99.90;;;;;;5032092;28;20082;-76
2022/12/19 12:52:00;;;;;;;13.13;8.93;;;7.70;99.90;;;;;;5046750;28;20048;-77
2022/12/19 12:54:38;;;;;;;10.45;8.30;;;9.30;99.90;;;;;;5029886;28;20048;-76
2022/12/19 12:57:04;;;;;;;9.68;7.55;;;7.70;99.90;;;;;;5020906;28;20049;-76
2022/12/19 12:59:30;;;;;;;11.93;8.68;;;8.90;99.90;;;;;;5047234;28;20041;-77
2022/12/19 13:02:05;;;;;;;15.02;11.98;;;8.90;99.90;;;;;;5046493;28;20132;-75
2022/12/19 13:04:34;;;;;;;12.90;8.55;;;7.70;99.90;;;;;;5049203;28;20556;-75
2022/12/19 13:07:19;;;;;;;8.77;7.30;;;8.80;99.90;;;;;;5030136;28;20037;-76